sensor_id;sensor_type;location;lat;lon;timestamp;pressure;altitude;pressure_sealevel;temperature;humidity
23433;BME280;41331;45.412;10.992;2022-11-21T00:01:23;100406.19;;;6.52;100.00
23433;BME280;41331;45.412;10.992;2022-11-21T00:03:51;100407.50;;;6.54;100.00
23433;BME280;41331;45.412;10.992;2022-11-21T00:06:19;100403.69;;;6.55;100.00
23433;BME280;41331;45.412;10.992;2022-11-21T00:08:46;100389.03;;;6.56;100.00
23433;BME280;41331;45.412;10.992;2022-11-21T00:11:14;100390.66;;;6.57;100.00
23433;BME280;41331;45.412;10.992;2022-11-21T00:13:42;100386.06;;;6.58;100.00
23433;BME280;41331;45.412;10.992;2022-11-21T00:16:12;100381.63;;;6.62;100.00
23433;BME280;41331;45.412;10.992;2022-11-21T00:18:41;100376.94;;;6.54;100.00
23433;BME280;41331;45.412;10.992;2022-11-21T00:21:15;100392.88;;;6.55;100.00
23433;BME280;41331;45.412;10.992;2022-11-21T00:23:46;100377.97;;;6.44;100.00
23433;BME280;41331;45.412;10.992;2022-11-21T00:26:15;100395.88;;;6.54;100.00
23433;BME280;41331;45.412;10.992;2022-11-21T00:28:43;100396.06;;;6.57;100.00
23433;BME280;41331;45.412;10.992;2022-11-21T00:31:21;100404.78;;;6.54;100.00
23433;BME280;41331;45.412;10.992;2022-11-21T00:33:49;100405.69;;;6.49;100.00
23433;BME280;41331;45.412;10.992;2022-11-21T00:36:16;100399.88;;;6.42;100.00
23433;BME280;41331;45.412;10.992;2022-11-21T00:38:45;100412.47;;;6.47;100.00
23433;BME280;41331;45.412;10.992;2022-11-21T00:41:12;100410.41;;;6.44;100.00
23433;BME280;41331;45.412;10.992;2022-11-21T00:43:40;100402.97;;;6.49;100.00
23433;BME280;41331;45.412;10.992;2022-11-21T00:46:07;100396.38;;;6.56;100.00
23433;BME280;41331;45.412;10.992;2022-11-21T00:48:35;100400.88;;;6.60;100.00
23433;BME280;41331;45.412;10.992;2022-11-21T00:51:02;100394.97;;;6.58;100.00
23433;BME280;41331;45.412;10.992;2022-11-21T00:53:30;100394.34;;;6.61;100.00
23433;BME280;41331;45.412;10.992;2022-11-21T00:55:57;100397.06;;;6.61;100.00
23433;BME280;41331;45.412;10.992;2022-11-21T00:58:25;100403.94;;;6.67;100.00
23433;BME280;41331;45.412;10.992;2022-11-21T01:01:04;100397.47;;;6.68;100.00
23433;BME280;41331;45.412;10.992;2022-11-21T01:03:33;100399.16;;;6.64;100.00
23433;BME280;41331;45.412;10.992;2022-11-21T01:06:04;100385.34;;;6.66;100.00
23433;BME280;41331;45.412;10.992;2022-11-21T01:08:35;100385.44;;;6.61;100.00
23433;BME280;41331;45.412;10.992;2022-11-21T01:11:04;100397.06;;;6.61;100.00
23433;BME280;41331;45.412;10.992;2022-11-21T01:13:33;100387.03;;;6.62;100.00
23433;BME280;41331;45.412;10.992;2022-11-21T01:16:12;100386.13;;;6.66;100.00
23433;BME280;41331;45.412;10.992;2022-11-21T01:18:40;100375.94;;;6.63;100.00
23433;BME280;41331;45.412;10.992;2022-11-21T01:21:16;100379.81;;;6.57;100.00
23433;BME280;41331;45.412;10.992;2022-11-21T01:23:44;100369.22;;;6.47;100.00
23433;BME280;41331;45.412;10.992;2022-11-21T01:26:14;100371.53;;;6.54;100.00
23433;BME280;41331;45.412;10.992;2022-11-21T01:28:42;100370.75;;;6.39;100.00
23433;BME280;41331;45.412;10.992;2022-11-21T01:31:15;100378.56;;;6.41;100.00
23433;BME280;41331;45.412;10.992;2022-11-21T01:33:43;100370.66;;;6.31;100.00
23433;BME280;41331;45.412;10.992;2022-11-21T01:36:21;100385.16;;;6.35;100.00
23433;BME280;41331;45.412;10.992;2022-11-21T01:38:51;100385.47;;;6.33;100.00
23433;BME280;41331;45.412;10.992;2022-11-21T01:41:21;100400.38;;;6.31;100.00
23433;BME280;41331;45.412;10.992;2022-11-21T01:43:49;100400.78;;;6.24;100.00
23433;BME280;41331;45.412;10.992;2022-11-21T01:46:21;100403.97;;;6.12;100.00
23433;BME280;41331;45.412;10.992;2022-11-21T01:49:08;100406.66;;;6.12;100.00
23433;BME280;41331;45.412;10.992;2022-11-21T01:54:17;100405.69;;;6.22;100.00
23433;BME280;41331;45.412;10.992;2022-11-21T01:59:26;100394.47;;;6.15;100.00
23433;BME280;41331;45.412;10.992;2022-11-21T02:01:57;100396.78;;;6.08;100.00
23433;BME280;41331;45.412;10.992;2022-11-21T02:04:30;100405.69;;;6.08;100.00
23433;BME280;41331;45.412;10.992;2022-11-21T02:07:01;100404.06;;;6.07;100.00
23433;BME280;41331;45.412;10.992;2022-11-21T02:09:31;100394.19;;;6.03;100.00
23433;BME280;41331;45.412;10.992;2022-11-21T02:12:23;100397.47;;;6.00;100.00
23433;BME280;41331;45.412;10.992;2022-11-21T02:14:54;100399.75;;;6.06;100.00
23433;BME280;41331;45.412;10.992;2022-11-21T02:17:21;100402.38;;;6.11;100.00
23433;BME280;41331;45.412;10.992;2022-11-21T02:19:51;100390.97;;;6.14;100.00
23433;BME280;41331;45.412;10.992;2022-11-21T02:22:31;100390.88;;;6.19;100.00
23433;BME280;41331;45.412;10.992;2022-11-21T02:25:07;100388.69;;;6.08;100.00
23433;BME280;41331;45.412;10.992;2022-11-21T02:27:36;100382.34;;;6.12;100.00
23433;BME280;41331;45.412;10.992;2022-11-21T02:30:05;100382.66;;;6.11;100.00
23433;BME280;41331;45.412;10.992;2022-11-21T02:32:39;100382.53;;;6.02;100.00
23433;BME280;41331;45.412;10.992;2022-11-21T02:35:08;100380.94;;;6.01;100.00
23433;BME280;41331;45.412;10.992;2022-11-21T02:37:36;100382.63;;;5.97;100.00
23433;BME280;41331;45.412;10.992;2022-11-21T02:40:24;100372.94;;;5.96;100.00
23433;BME280;41331;45.412;10.992;2022-11-21T02:42:58;100375.34;;;5.97;100.00
23433;BME280;41331;45.412;10.992;2022-11-21T02:45:43;100371.72;;;6.02;100.00
23433;BME280;41331;45.412;10.992;2022-11-21T02:48:11;100373.63;;;6.02;100.00
23433;BME280;41331;45.412;10.992;2022-11-21T02:50:48;100370.06;;;5.92;100.00
23433;BME280;41331;45.412;10.992;2022-11-21T02:53:17;100372.13;;;5.95;100.00
23433;BME280;41331;45.412;10.992;2022-11-21T02:55:45;100356.78;;;5.91;100.00
23433;BME280;41331;45.412;10.992;2022-11-21T02:58:13;100353.13;;;6.01;100.00
23433;BME280;41331;45.412;10.992;2022-11-21T03:00:41;100344.63;;;5.93;100.00
23433;BME280;41331;45.412;10.992;2022-11-21T03:03:09;100348.13;;;5.94;100.00
23433;BME280;41331;45.412;10.992;2022-11-21T03:05:38;100348.19;;;5.89;100.00
23433;BME280;41331;45.412;10.992;2022-11-21T03:08:06;100347.78;;;5.82;100.00
23433;BME280;41331;45.412;10.992;2022-11-21T03:10:33;100337.16;;;5.71;100.00
23433;BME280;41331;45.412;10.992;2022-11-21T03:13:01;100329.53;;;5.60;100.00
23433;BME280;41331;45.412;10.992;2022-11-21T03:15:31;100334.56;;;5.66;100.00
23433;BME280;41331;45.412;10.992;2022-11-21T03:17:59;100314.44;;;5.59;100.00
23433;BME280;41331;45.412;10.992;2022-11-21T03:20:30;100324.75;;;5.70;100.00
23433;BME280;41331;45.412;10.992;2022-11-21T03:22:58;100324.44;;;5.72;100.00
23433;BME280;41331;45.412;10.992;2022-11-21T03:25:25;100327.97;;;5.72;100.00
23433;BME280;41331;45.412;10.992;2022-11-21T03:27:53;100322.16;;;5.65;100.00
23433;BME280;41331;45.412;10.992;2022-11-21T03:30:21;100325.66;;;5.66;100.00
23433;BME280;41331;45.412;10.992;2022-11-21T03:32:49;100322.03;;;5.57;100.00
23433;BME280;41331;45.412;10.992;2022-11-21T03:35:17;100321.94;;;5.62;100.00
23433;BME280;41331;45.412;10.992;2022-11-21T03:37:47;100325.25;;;5.59;100.00
23433;BME280;41331;45.412;10.992;2022-11-21T03:40:15;100334.56;;;5.66;100.00
23433;BME280;41331;45.412;10.992;2022-11-21T03:42:42;100316.25;;;5.63;100.00
23433;BME280;41331;45.412;10.992;2022-11-21T03:45:10;100314.31;;;5.50;100.00
23433;BME280;41331;45.412;10.992;2022-11-21T03:47:50;100322.81;;;5.43;100.00
23433;BME280;41331;45.412;10.992;2022-11-21T03:50:17;100316.41;;;5.39;100.00
23433;BME280;41331;45.412;10.992;2022-11-21T03:52:50;100317.81;;;5.51;100.00
23433;BME280;41331;45.412;10.992;2022-11-21T03:55:17;100307.56;;;5.53;100.00
23433;BME280;41331;45.412;10.992;2022-11-21T03:57:44;100304.53;;;5.54;100.00
23433;BME280;41331;45.412;10.992;2022-11-21T04:00:13;100298.22;;;5.45;100.00
23433;BME280;41331;45.412;10.992;2022-11-21T04:02:40;100292.03;;;5.44;100.00
23433;BME280;41331;45.412;10.992;2022-11-21T04:05:08;100284.41;;;5.46;100.00
23433;BME280;41331;45.412;10.992;2022-11-21T04:07:35;100302.16;;;5.53;100.00
23433;BME280;41331;45.412;10.992;2022-11-21T04:10:03;100292.16;;;5.53;100.00
23433;BME280;41331;45.412;10.992;2022-11-21T04:12:30;100297.13;;;5.46;100.00
23433;BME280;41331;45.412;10.992;2022-11-21T04:15:00;100295.22;;;5.46;100.00
23433;BME280;41331;45.412;10.992;2022-11-21T04:17:28;100300.00;;;5.36;100.00
23433;BME280;41331;45.412;10.992;2022-11-21T04:19:55;100306.22;;;5.50;100.00
23433;BME280;41331;45.412;10.992;2022-11-21T04:22:23;100308.00;;;5.41;100.00
23433;BME280;41331;45.412;10.992;2022-11-21T04:24:50;100313.94;;;5.43;100.00
23433;BME280;41331;45.412;10.992;2022-11-21T04:27:17;100309.50;;;5.47;100.00
23433;BME280;41331;45.412;10.992;2022-11-21T04:29:45;100310.91;;;5.44;100.00
23433;BME280;41331;45.412;10.992;2022-11-21T04:32:12;100302.69;;;5.36;100.00
23433;BME280;41331;45.412;10.992;2022-11-21T04:34:40;100315.81;;;5.42;100.00
23433;BME280;41331;45.412;10.992;2022-11-21T04:37:08;100309.09;;;5.40;100.00
23433;BME280;41331;45.412;10.992;2022-11-21T04:39:38;100312.03;;;5.43;100.00
23433;BME280;41331;45.412;10.992;2022-11-21T04:42:05;100302.59;;;5.41;100.00
23433;BME280;41331;45.412;10.992;2022-11-21T04:44:32;100300.53;;;5.38;100.00
23433;BME280;41331;45.412;10.992;2022-11-21T04:47:00;100293.19;;;5.25;100.00
23433;BME280;41331;45.412;10.992;2022-11-21T04:49:31;100295.63;;;5.40;100.00
23433;BME280;41331;45.412;10.992;2022-11-21T04:51:59;100295.69;;;5.35;100.00
23433;BME280;41331;45.412;10.992;2022-11-21T04:54:29;100295.41;;;5.36;100.00
23433;BME280;41331;45.412;10.992;2022-11-21T04:56:57;100301.28;;;5.25;100.00
23433;BME280;41331;45.412;10.992;2022-11-21T04:59:24;100287.56;;;5.21;100.00
23433;BME280;41331;45.412;10.992;2022-11-21T05:01:52;100299.47;;;5.20;100.00
23433;BME280;41331;45.412;10.992;2022-11-21T05:04:19;100296.09;;;5.28;100.00
23433;BME280;41331;45.412;10.992;2022-11-21T05:06:47;100301.84;;;5.22;100.00
23433;BME280;41331;45.412;10.992;2022-11-21T05:09:14;100296.75;;;5.20;100.00
23433;BME280;41331;45.412;10.992;2022-11-21T05:11:41;100308.00;;;5.27;100.00
23433;BME280;41331;45.412;10.992;2022-11-21T05:14:28;100311.13;;;5.15;100.00
23433;BME280;41331;45.412;10.992;2022-11-21T05:16:56;100306.63;;;5.11;100.00
23433;BME280;41331;45.412;10.992;2022-11-21T05:19:23;100312.94;;;5.20;100.00
23433;BME280;41331;45.412;10.992;2022-11-21T05:21:50;100294.81;;;5.07;100.00
23433;BME280;41331;45.412;10.992;2022-11-21T05:24:18;100302.41;;;5.05;100.00
23433;BME280;41331;45.412;10.992;2022-11-21T05:26:48;100291.63;;;5.05;100.00
23433;BME280;41331;45.412;10.992;2022-11-21T05:29:16;100290.59;;;5.01;100.00
23433;BME280;41331;45.412;10.992;2022-11-21T05:31:43;100291.63;;;5.05;100.00
23433;BME280;41331;45.412;10.992;2022-11-21T05:34:10;100277.19;;;4.96;100.00
23433;BME280;41331;45.412;10.992;2022-11-21T05:36:38;100287.06;;;5.19;100.00
23433;BME280;41331;45.412;10.992;2022-11-21T05:39:05;100278.34;;;5.08;100.00
23433;BME280;41331;45.412;10.992;2022-11-21T05:41:33;100270.91;;;5.00;100.00
23433;BME280;41331;45.412;10.992;2022-11-21T05:44:00;100276.75;;;5.07;100.00
23433;BME280;41331;45.412;10.992;2022-11-21T05:46:28;100277.47;;;5.13;100.00
23433;BME280;41331;45.412;10.992;2022-11-21T05:48:55;100268.28;;;5.14;100.00
23433;BME280;41331;45.412;10.992;2022-11-21T05:51:22;100272.16;;;5.22;100.00
23433;BME280;41331;45.412;10.992;2022-11-21T05:53:50;100249.78;;;5.07;100.00
23433;BME280;41331;45.412;10.992;2022-11-21T05:56:18;100267.75;;;5.12;100.00
23433;BME280;41331;45.412;10.992;2022-11-21T05:58:46;100273.41;;;4.97;100.00
23433;BME280;41331;45.412;10.992;2022-11-21T06:01:13;100261.78;;;4.82;100.00
23433;BME280;41331;45.412;10.992;2022-11-21T06:03:41;100267.44;;;4.81;100.00
23433;BME280;41331;45.412;10.992;2022-11-21T06:06:10;100264.22;;;4.98;100.00
23433;BME280;41331;45.412;10.992;2022-11-21T06:08:40;100259.91;;;4.97;100.00
23433;BME280;41331;45.412;10.992;2022-11-21T06:11:12;100273.00;;;5.22;100.00
23433;BME280;41331;45.412;10.992;2022-11-21T06:13:40;100271.50;;;5.30;100.00
23433;BME280;41331;45.412;10.992;2022-11-21T06:16:10;100276.09;;;5.29;100.00
23433;BME280;41331;45.412;10.992;2022-11-21T06:18:41;100293.84;;;5.49;99.06
23433;BME280;41331;45.412;10.992;2022-11-21T06:21:23;100286.03;;;5.48;98.36
23433;BME280;41331;45.412;10.992;2022-11-21T06:23:52;100281.84;;;5.55;98.05
23433;BME280;41331;45.412;10.992;2022-11-21T06:26:22;100268.66;;;5.54;100.00
23433;BME280;41331;45.412;10.992;2022-11-21T06:28:52;100264.25;;;5.44;100.00
23433;BME280;41331;45.412;10.992;2022-11-21T06:31:25;100263.91;;;5.32;100.00
23433;BME280;41331;45.412;10.992;2022-11-21T06:33:55;100262.91;;;5.28;100.00
23433;BME280;41331;45.412;10.992;2022-11-21T06:36:23;100266.50;;;5.23;100.00
23433;BME280;41331;45.412;10.992;2022-11-21T06:38:53;100262.47;;;5.20;100.00
23433;BME280;41331;45.412;10.992;2022-11-21T06:41:25;100268.69;;;5.21;100.00
23433;BME280;41331;45.412;10.992;2022-11-21T06:43:59;100263.81;;;5.23;100.00
23433;BME280;41331;45.412;10.992;2022-11-21T06:46:27;100273.91;;;5.31;100.00
23433;BME280;41331;45.412;10.992;2022-11-21T06:48:55;100289.38;;;5.26;100.00
23433;BME280;41331;45.412;10.992;2022-11-21T06:51:23;100292.28;;;5.29;100.00
23433;BME280;41331;45.412;10.992;2022-11-21T06:53:53;100283.19;;;5.25;100.00
23433;BME280;41331;45.412;10.992;2022-11-21T06:56:23;100286.50;;;5.36;100.00
23433;BME280;41331;45.412;10.992;2022-11-21T06:58:51;100276.63;;;5.45;100.00
23433;BME280;41331;45.412;10.992;2022-11-21T07:01:18;100288.34;;;5.82;100.00
23433;BME280;41331;45.412;10.992;2022-11-21T07:03:46;100288.50;;;6.18;99.25
23433;BME280;41331;45.412;10.992;2022-11-21T07:06:13;100292.16;;;6.22;99.17
23433;BME280;41331;45.412;10.992;2022-11-21T07:08:41;100290.78;;;6.25;99.16
23433;BME280;41331;45.412;10.992;2022-11-21T07:11:11;100295.47;;;6.33;98.52
23433;BME280;41331;45.412;10.992;2022-11-21T07:13:54;100301.91;;;6.23;98.17
23433;BME280;41331;45.412;10.992;2022-11-21T07:16:22;100306.88;;;6.16;98.86
23433;BME280;41331;45.412;10.992;2022-11-21T07:18:52;100309.81;;;6.06;99.39
23433;BME280;41331;45.412;10.992;2022-11-21T07:21:20;100309.41;;;5.99;98.59
23433;BME280;41331;45.412;10.992;2022-11-21T07:23:47;100315.91;;;5.97;97.90
23433;BME280;41331;45.412;10.992;2022-11-21T07:26:14;100310.81;;;6.23;96.58
23433;BME280;41331;45.412;10.992;2022-11-21T07:28:42;100317.41;;;6.04;98.78
23433;BME280;41331;45.412;10.992;2022-11-21T07:31:09;100319.81;;;6.05;99.57
23433;BME280;41331;45.412;10.992;2022-11-21T07:33:40;100317.22;;;6.14;100.00
23433;BME280;41331;45.412;10.992;2022-11-21T07:36:11;100317.50;;;6.12;100.00
23433;BME280;41331;45.412;10.992;2022-11-21T07:38:38;100334.81;;;6.25;98.25
23433;BME280;41331;45.412;10.992;2022-11-21T07:41:08;100325.59;;;6.26;96.68
23433;BME280;41331;45.412;10.992;2022-11-21T07:43:36;100342.13;;;6.38;95.55
23433;BME280;41331;45.412;10.992;2022-11-21T07:46:04;100334.38;;;6.45;96.87
23433;BME280;41331;45.412;10.992;2022-11-21T07:48:44;100340.28;;;6.47;96.11
23433;BME280;41331;45.412;10.992;2022-11-21T07:51:11;100327.88;;;6.46;97.00
23433;BME280;41331;45.412;10.992;2022-11-21T07:53:41;100324.16;;;6.56;97.77
23433;BME280;41331;45.412;10.992;2022-11-21T07:56:09;100326.06;;;6.56;97.27
23433;BME280;41331;45.412;10.992;2022-11-21T07:58:36;100330.97;;;6.54;98.25
23433;BME280;41331;45.412;10.992;2022-11-21T08:01:05;100328.28;;;6.54;98.72
23433;BME280;41331;45.412;10.992;2022-11-21T08:03:33;100318.03;;;6.64;98.40
23433;BME280;41331;45.412;10.992;2022-11-21T08:06:02;100322.66;;;6.64;98.53
23433;BME280;41331;45.412;10.992;2022-11-21T08:08:30;100321.09;;;6.71;98.28
23433;BME280;41331;45.412;10.992;2022-11-21T08:10:58;100323.19;;;6.88;97.69
23433;BME280;41331;45.412;10.992;2022-11-21T08:13:27;100330.34;;;6.70;99.26
23433;BME280;41331;45.412;10.992;2022-11-21T08:15:55;100326.78;;;6.84;100.00
23433;BME280;41331;45.412;10.992;2022-11-21T08:18:22;100314.34;;;6.83;100.00
23433;BME280;41331;45.412;10.992;2022-11-21T08:20:50;100329.19;;;6.85;100.00
23433;BME280;41331;45.412;10.992;2022-11-21T08:23:17;100331.22;;;6.80;100.00
23433;BME280;41331;45.412;10.992;2022-11-21T08:25:45;100314.94;;;6.57;100.00
23433;BME280;41331;45.412;10.992;2022-11-21T08:28:12;100310.13;;;6.68;100.00
23433;BME280;41331;45.412;10.992;2022-11-21T08:30:40;100296.00;;;6.93;100.00
23433;BME280;41331;45.412;10.992;2022-11-21T08:33:07;100310.25;;;7.08;100.00
23433;BME280;41331;45.412;10.992;2022-11-21T08:35:37;100326.81;;;7.06;100.00
23433;BME280;41331;45.412;10.992;2022-11-21T08:38:05;100303.91;;;6.90;100.00
23433;BME280;41331;45.412;10.992;2022-11-21T08:40:33;100319.59;;;7.01;100.00
23433;BME280;41331;45.412;10.992;2022-11-21T08:43:06;100311.34;;;7.07;100.00
23433;BME280;41331;45.412;10.992;2022-11-21T08:45:35;100313.81;;;7.17;100.00
23433;BME280;41331;45.412;10.992;2022-11-21T08:48:04;100312.59;;;7.23;100.00
23433;BME280;41331;45.412;10.992;2022-11-21T08:50:34;100300.28;;;7.17;100.00
23433;BME280;41331;45.412;10.992;2022-11-21T08:53:02;100307.22;;;7.32;100.00
23433;BME280;41331;45.412;10.992;2022-11-21T08:55:30;100302.00;;;7.35;100.00
23433;BME280;41331;45.412;10.992;2022-11-21T08:57:58;100290.91;;;7.45;100.00
23433;BME280;41331;45.412;10.992;2022-11-21T09:00:26;100306.66;;;7.74;95.77
23433;BME280;41331;45.412;10.992;2022-11-21T09:02:53;100292.69;;;7.90;94.53
23433;BME280;41331;45.412;10.992;2022-11-21T09:05:23;100295.09;;;7.91;95.88
23433;BME280;41331;45.412;10.992;2022-11-21T09:07:57;100292.31;;;8.14;95.24
23433;BME280;41331;45.412;10.992;2022-11-21T09:10:25;100276.38;;;8.29;96.18
23433;BME280;41331;45.412;10.992;2022-11-21T09:12:56;100286.28;;;8.34;96.17
23433;BME280;41331;45.412;10.992;2022-11-21T09:15:24;100280.41;;;8.41;95.40
23433;BME280;41331;45.412;10.992;2022-11-21T09:18:10;100285.88;;;8.84;94.09
23433;BME280;41331;45.412;10.992;2022-11-21T09:20:41;100290.31;;;8.63;96.02
23433;BME280;41331;45.412;10.992;2022-11-21T09:23:11;100302.13;;;8.58;96.99
23433;BME280;41331;45.412;10.992;2022-11-21T09:25:39;100293.38;;;8.70;96.60
23433;BME280;41331;45.412;10.992;2022-11-21T09:28:08;100302.13;;;9.10;94.52
23433;BME280;41331;45.412;10.992;2022-11-21T09:30:36;100296.22;;;8.73;96.11
23433;BME280;41331;45.412;10.992;2022-11-21T09:33:06;100294.16;;;8.62;98.64
23433;BME280;41331;45.412;10.992;2022-11-21T09:35:33;100290.97;;;8.77;98.99
23433;BME280;41331;45.412;10.992;2022-11-21T09:38:01;100293.50;;;8.73;100.00
23433;BME280;41331;45.412;10.992;2022-11-21T09:40:29;100293.38;;;8.70;100.00
23433;BME280;41331;45.412;10.992;2022-11-21T09:45:50;100285.38;;;8.99;97.56
23433;BME280;41331;45.412;10.992;2022-11-21T09:48:33;100278.16;;;9.21;96.72
23433;BME280;41331;45.412;10.992;2022-11-21T09:51:06;100282.00;;;9.11;97.97
23433;BME280;41331;45.412;10.992;2022-11-21T09:54:01;100269.06;;;9.08;98.52
23433;BME280;41331;45.412;10.992;2022-11-21T09:56:33;100271.16;;;8.85;100.00
23433;BME280;41331;45.412;10.992;2022-11-21T10:01:47;100277.56;;;8.89;100.00
23433;BME280;41331;45.412;10.992;2022-11-21T10:04:15;100263.50;;;9.04;100.00
23433;BME280;41331;45.412;10.992;2022-11-21T10:07:23;100265.25;;;9.09;100.00
23433;BME280;41331;45.412;10.992;2022-11-21T10:16:07;100257.06;;;9.18;100.00
23433;BME280;41331;45.412;10.992;2022-11-21T10:18:57;100265.34;;;9.30;100.00
23433;BME280;41331;45.412;10.992;2022-11-21T10:27:15;100236.06;;;9.44;100.00
23433;BME280;41331;45.412;10.992;2022-11-21T10:29:54;100241.72;;;9.22;100.00
23433;BME280;41331;45.412;10.992;2022-11-21T10:32:36;100244.72;;;9.38;100.00
23433;BME280;41331;45.412;10.992;2022-11-21T10:35:15;100241.88;;;9.34;100.00
23433;BME280;41331;45.412;10.992;2022-11-21T10:37:46;100234.81;;;9.33;100.00
23433;BME280;41331;45.412;10.992;2022-11-21T10:42:56;100226.38;;;9.34;100.00
23433;BME280;41331;45.412;10.992;2022-11-21T10:45:25;100218.22;;;9.26;100.00
23433;BME280;41331;45.412;10.992;2022-11-21T10:47:53;100213.94;;;9.25;100.00
23433;BME280;41331;45.412;10.992;2022-11-21T10:50:49;100206.91;;;9.24;100.00
23433;BME280;41331;45.412;10.992;2022-11-21T10:53:21;100200.84;;;9.18;100.00
23433;BME280;41331;45.412;10.992;2022-11-21T10:56:19;100202.31;;;8.98;100.00
23433;BME280;41331;45.412;10.992;2022-11-21T10:58:57;100192.63;;;8.80;100.00
23433;BME280;41331;45.412;10.992;2022-11-21T11:01:30;100187.84;;;8.86;100.00
23433;BME280;41331;45.412;10.992;2022-11-21T11:07:18;100209.72;;;8.80;100.00
23433;BME280;41331;45.412;10.992;2022-11-21T11:09:46;100197.88;;;8.16;100.00
23433;BME280;41331;45.412;10.992;2022-11-21T11:12:32;100198.31;;;7.92;100.00
23433;BME280;41331;45.412;10.992;2022-11-21T11:15:21;100189.41;;;7.91;100.00
23433;BME280;41331;45.412;10.992;2022-11-21T11:18:11;100187.97;;;7.85;100.00
23433;BME280;41331;45.412;10.992;2022-11-21T11:20:42;100188.13;;;7.80;100.00
23433;BME280;41331;45.412;10.992;2022-11-21T11:25:59;100179.06;;;8.02;100.00
23433;BME280;41331;45.412;10.992;2022-11-21T11:28:34;100174.28;;;8.16;100.00
23433;BME280;41331;45.412;10.992;2022-11-21T11:31:02;100162.34;;;8.26;100.00
23433;BME280;41331;45.412;10.992;2022-11-21T11:33:37;100163.78;;;8.23;100.00
23433;BME280;41331;45.412;10.992;2022-11-21T11:38:57;100123.91;;;8.24;100.00
23433;BME280;41331;45.412;10.992;2022-11-21T11:47:55;100127.06;;;8.69;100.00
23433;BME280;41331;45.412;10.992;2022-11-21T11:53:20;100118.75;;;8.74;100.00
23433;BME280;41331;45.412;10.992;2022-11-21T11:55:56;100111.81;;;8.94;100.00
23433;BME280;41331;45.412;10.992;2022-11-21T11:58:35;100108.59;;;9.01;100.00
23433;BME280;41331;45.412;10.992;2022-11-21T12:01:29;100105.44;;;9.28;100.00
23433;BME280;41331;45.412;10.992;2022-11-21T12:04:13;100111.34;;;9.30;100.00
23433;BME280;41331;45.412;10.992;2022-11-21T12:12:25;100103.72;;;9.24;100.00
23433;BME280;41331;45.412;10.992;2022-11-21T12:15:12;100095.84;;;9.31;100.00
23433;BME280;41331;45.412;10.992;2022-11-21T12:18:11;100103.06;;;9.27;100.00
23433;BME280;41331;45.412;10.992;2022-11-21T12:20:54;100095.66;;;9.36;100.00
23433;BME280;41331;45.412;10.992;2022-11-21T12:23:30;100090.41;;;9.31;100.00
23433;BME280;41331;45.412;10.992;2022-11-21T12:42:39;100058.75;;;9.05;100.00
23433;BME280;41331;45.412;10.992;2022-11-21T13:05:11;100014.16;;;9.15;100.00
23433;BME280;41331;45.412;10.992;2022-11-21T13:07:44;100013.41;;;9.06;100.00
23433;BME280;41331;45.412;10.992;2022-11-21T13:10:14;100025.50;;;9.08;100.00
23433;BME280;41331;45.412;10.992;2022-11-21T13:13:24;100023.69;;;9.21;100.00
23433;BME280;41331;45.412;10.992;2022-11-21T13:16:05;100027.06;;;9.18;100.00
23433;BME280;41331;45.412;10.992;2022-11-21T13:18:45;100021.44;;;9.23;100.00
23433;BME280;41331;45.412;10.992;2022-11-21T13:21:53;100021.47;;;9.44;100.00
23433;BME280;41331;45.412;10.992;2022-11-21T13:27:36;100032.25;;;9.53;100.00
23433;BME280;41331;45.412;10.992;2022-11-21T13:46:02;100037.16;;;9.39;100.00
23433;BME280;41331;45.412;10.992;2022-11-21T13:51:32;100034.03;;;8.98;100.00
23433;BME280;41331;45.412;10.992;2022-11-21T13:57:30;100023.25;;;8.90;100.00
23433;BME280;41331;45.412;10.992;2022-11-21T14:00:19;100018.94;;;8.89;100.00
23433;BME280;41331;45.412;10.992;2022-11-21T14:03:13;100004.06;;;8.95;100.00
23433;BME280;41331;45.412;10.992;2022-11-21T14:08:26;100011.63;;;8.80;100.00
23433;BME280;41331;45.412;10.992;2022-11-21T14:10:57;100010.97;;;8.84;100.00
23433;BME280;41331;45.412;10.992;2022-11-21T14:13:33;99997.44;;;8.75;100.00
23433;BME280;41331;45.412;10.992;2022-11-21T14:16:41;99996.50;;;8.71;100.00
23433;BME280;41331;45.412;10.992;2022-11-21T14:19:13;99997.06;;;8.85;100.00
23433;BME280;41331;45.412;10.992;2022-11-21T14:21:45;100002.03;;;8.83;100.00
23433;BME280;41331;45.412;10.992;2022-11-21T14:24:17;100001.09;;;8.79;100.00
23433;BME280;41331;45.412;10.992;2022-11-21T14:26:47;100019.59;;;8.77;100.00
23433;BME280;41331;45.412;10.992;2022-11-21T14:29:27;100021.19;;;8.78;100.00
23433;BME280;41331;45.412;10.992;2022-11-21T14:32:03;100026.13;;;8.85;100.00
23433;BME280;41331;45.412;10.992;2022-11-21T14:34:31;100022.31;;;8.77;100.00
23433;BME280;41331;45.412;10.992;2022-11-21T14:37:02;100024.44;;;8.63;100.00
23433;BME280;41331;45.412;10.992;2022-11-21T14:39:38;100017.94;;;8.55;100.00
23433;BME280;41331;45.412;10.992;2022-11-21T14:42:14;100033.13;;;8.47;100.00
23433;BME280;41331;45.412;10.992;2022-11-21T14:44:41;100023.41;;;8.38;100.00
23433;BME280;41331;45.412;10.992;2022-11-21T14:47:17;100034.75;;;8.40;100.00
23433;BME280;41331;45.412;10.992;2022-11-21T14:49:52;100032.47;;;8.33;100.00
23433;BME280;41331;45.412;10.992;2022-11-21T14:52:29;100029.03;;;8.24;100.00
23433;BME280;41331;45.412;10.992;2022-11-21T14:55:03;100016.25;;;8.16;100.00
23433;BME280;41331;45.412;10.992;2022-11-21T14:57:53;100016.09;;;8.21;100.00